sensor_id;sensor_type;location;lat;lon;timestamp;temperature;humidity
5924;DHT22;2987;50.884;14.818;2022-09-24T00:00:44;7.10;99.90
5924;DHT22;2987;50.884;14.818;2022-09-24T00:03:13;7.00;99.90
5924;DHT22;2987;50.884;14.818;2022-09-24T00:05:40;7.10;99.90
5924;DHT22;2987;50.884;14.818;2022-09-24T00:08:07;7.10;99.90
5924;DHT22;2987;50.884;14.818;2022-09-24T00:10:39;7.10;99.90
5924;DHT22;2987;50.884;14.818;2022-09-24T00:13:07;7.10;99.90
5924;DHT22;2987;50.884;14.818;2022-09-24T00:15:36;7.40;99.90
5924;DHT22;2987;50.884;14.818;2022-09-24T00:18:03;7.20;99.90
5924;DHT22;2987;50.884;14.818;2022-09-24T00:20:31;7.10;99.90
5924;DHT22;2987;50.884;14.818;2022-09-24T00:22:59;7.10;99.90
5924;DHT22;2987;50.884;14.818;2022-09-24T00:25:25;7.10;99.90
5924;DHT22;2987;50.884;14.818;2022-09-24T00:28:36;7.60;99.90
5924;DHT22;2987;50.884;14.818;2022-09-24T00:31:05;7.30;99.90
5924;DHT22;2987;50.884;14.818;2022-09-24T00:33:33;7.30;99.90
5924;DHT22;2987;50.884;14.818;2022-09-24T00:36:02;7.00;99.90
5924;DHT22;2987;50.884;14.818;2022-09-24T00:38:31;7.40;99.90
5924;DHT22;2987;50.884;14.818;2022-09-24T00:40:58;7.10;99.90
5924;DHT22;2987;50.884;14.818;2022-09-24T00:43:29;7.10;99.90
5924;DHT22;2987;50.884;14.818;2022-09-24T00:51:18;7.00;99.90
5924;DHT22;2987;50.884;14.818;2022-09-24T00:53:47;7.30;99.90
5924;DHT22;2987;50.884;14.818;2022-09-24T00:56:14;7.00;99.90
5924;DHT22;2987;50.884;14.818;2022-09-24T00:58:45;7.00;99.90
5924;DHT22;2987;50.884;14.818;2022-09-24T01:01:13;7.30;99.90
5924;DHT22;2987;50.884;14.818;2022-09-24T01:03:41;7.60;99.90
5924;DHT22;2987;50.884;14.818;2022-09-24T01:06:08;7.10;99.90
5924;DHT22;2987;50.884;14.818;2022-09-24T01:08:34;7.10;99.90
5924;DHT22;2987;50.884;14.818;2022-09-24T01:11:25;7.20;99.90
5924;DHT22;2987;50.884;14.818;2022-09-24T01:17:33;7.10;99.90
5924;DHT22;2987;50.884;14.818;2022-09-24T01:25:22;7.40;99.90
5924;DHT22;2987;50.884;14.818;2022-09-24T01:28:12;7.10;99.90
5924;DHT22;2987;50.884;14.818;2022-09-24T01:30:46;7.10;99.90
5924;DHT22;2987;50.884;14.818;2022-09-24T01:33:20;7.10;99.90
5924;DHT22;2987;50.884;14.818;2022-09-24T01:35:51;7.60;99.90
5924;DHT22;2987;50.884;14.818;2022-09-24T01:38:23;7.10;99.90
5924;DHT22;2987;50.884;14.818;2022-09-24T01:40:52;7.10;99.90
5924;DHT22;2987;50.884;14.818;2022-09-24T01:43:23;7.60;99.90
5924;DHT22;2987;50.884;14.818;2022-09-24T01:45:51;7.30;99.90
5924;DHT22;2987;50.884;14.818;2022-09-24T01:48:17;7.40;99.90
5924;DHT22;2987;50.884;14.818;2022-09-24T01:50:55;7.40;99.90
5924;DHT22;2987;50.884;14.818;2022-09-24T01:53:29;7.30;99.90
5924;DHT22;2987;50.884;14.818;2022-09-24T01:56:02;7.40;99.90
5924;DHT22;2987;50.884;14.818;2022-09-24T01:58:36;7.70;99.90
5924;DHT22;2987;50.884;14.818;2022-09-24T02:01:09;7.40;99.90
5924;DHT22;2987;50.884;14.818;2022-09-24T02:03:44;7.30;99.90
5924;DHT22;2987;50.884;14.818;2022-09-24T02:06:17;7.30;99.90
5924;DHT22;2987;50.884;14.818;2022-09-24T02:08:47;7.70;99.90
5924;DHT22;2987;50.884;14.818;2022-09-24T02:11:17;7.40;99.90
5924;DHT22;2987;50.884;14.818;2022-09-24T02:14:11;7.40;99.90
5924;DHT22;2987;50.884;14.818;2022-09-24T02:19:13;7.70;99.90
5924;DHT22;2987;50.884;14.818;2022-09-24T02:21:41;7.70;99.90
5924;DHT22;2987;50.884;14.818;2022-09-24T02:24:13;7.60;99.90
5924;DHT22;2987;50.884;14.818;2022-09-24T02:26:42;7.80;99.90
5924;DHT22;2987;50.884;14.818;2022-09-24T02:29:08;7.70;99.90
5924;DHT22;2987;50.884;14.818;2022-09-24T02:31:37;7.60;99.90
5924;DHT22;2987;50.884;14.818;2022-09-24T02:34:08;7.60;99.90
5924;DHT22;2987;50.884;14.818;2022-09-24T02:36:56;7.50;99.90
5924;DHT22;2987;50.884;14.818;2022-09-24T02:39:25;7.40;99.90
5924;DHT22;2987;50.884;14.818;2022-09-24T02:41:53;7.70;99.90
5924;DHT22;2987;50.884;14.818;2022-09-24T02:44:21;7.70;99.90
5924;DHT22;2987;50.884;14.818;2022-09-24T02:46:47;7.40;99.90
5924;DHT22;2987;50.884;14.818;2022-09-24T02:49:15;7.50;99.90
5924;DHT22;2987;50.884;14.818;2022-09-24T02:51:42;7.60;99.90
5924;DHT22;2987;50.884;14.818;2022-09-24T02:54:10;7.30;99.90
5924;DHT22;2987;50.884;14.818;2022-09-24T02:56:36;7.60;99.90
5924;DHT22;2987;50.884;14.818;2022-09-24T02:59:27;7.10;99.90
5924;DHT22;2987;50.884;14.818;2022-09-24T03:01:53;7.10;99.90
5924;DHT22;2987;50.884;14.818;2022-09-24T03:04:19;7.10;99.90
5924;DHT22;2987;50.884;14.818;2022-09-24T03:06:45;7.10;99.90
5924;DHT22;2987;50.884;14.818;2022-09-24T03:09:11;7.10;99.90
5924;DHT22;2987;50.884;14.818;2022-09-24T03:11:38;7.10;99.90
5924;DHT22;2987;50.884;14.818;2022-09-24T03:14:05;7.10;99.90
5924;DHT22;2987;50.884;14.818;2022-09-24T03:16:31;7.10;99.90
5924;DHT22;2987;50.884;14.818;2022-09-24T03:18:58;7.10;99.90
5924;DHT22;2987;50.884;14.818;2022-09-24T03:21:24;7.10;99.90
5924;DHT22;2987;50.884;14.818;2022-09-24T03:23:50;7.10;99.90
5924;DHT22;2987;50.884;14.818;2022-09-24T03:26:16;7.40;99.90
5924;DHT22;2987;50.884;14.818;2022-09-24T03:28:43;7.70;99.90
5924;DHT22;2987;50.884;14.818;2022-09-24T03:31:10;7.40;99.90
5924;DHT22;2987;50.884;14.818;2022-09-24T03:33:40;7.40;99.90
5924;DHT22;2987;50.884;14.818;2022-09-24T03:36:11;7.30;99.90
5924;DHT22;2987;50.884;14.818;2022-09-24T03:38:39;7.70;99.90
5924;DHT22;2987;50.884;14.818;2022-09-24T03:41:08;7.30;99.90
5924;DHT22;2987;50.884;14.818;2022-09-24T03:43:34;7.70;99.90
5924;DHT22;2987;50.884;14.818;2022-09-24T03:46:03;7.40;99.90
5924;DHT22;2987;50.884;14.818;2022-09-24T03:48:35;7.50;99.90
5924;DHT22;2987;50.884;14.818;2022-09-24T03:51:04;7.70;99.90
5924;DHT22;2987;50.884;14.818;2022-09-24T03:53:31;7.50;99.90
5924;DHT22;2987;50.884;14.818;2022-09-24T03:55:58;7.80;99.90
5924;DHT22;2987;50.884;14.818;2022-09-24T03:58:28;7.80;99.90
5924;DHT22;2987;50.884;14.818;2022-09-24T04:00:57;7.60;99.90
5924;DHT22;2987;50.884;14.818;2022-09-24T04:03:24;7.70;99.90
5924;DHT22;2987;50.884;14.818;2022-09-24T04:05:50;7.80;99.90
5924;DHT22;2987;50.884;14.818;2022-09-24T04:08:18;7.80;99.90
5924;DHT22;2987;50.884;14.818;2022-09-24T04:10:46;7.80;99.90
5924;DHT22;2987;50.884;14.818;2022-09-24T04:13:12;7.80;99.90
5924;DHT22;2987;50.884;14.818;2022-09-24T04:15:38;7.80;99.90
5924;DHT22;2987;50.884;14.818;2022-09-24T04:18:04;7.90;99.90
5924;DHT22;2987;50.884;14.818;2022-09-24T04:20:31;7.80;99.90
5924;DHT22;2987;50.884;14.818;2022-09-24T04:22:58;7.80;99.90
5924;DHT22;2987;50.884;14.818;2022-09-24T04:25:28;7.70;99.90
5924;DHT22;2987;50.884;14.818;2022-09-24T04:28:01;7.50;99.90
5924;DHT22;2987;50.884;14.818;2022-09-24T04:30:29;7.50;99.90
5924;DHT22;2987;50.884;14.818;2022-09-24T04:32:55;7.60;99.90
5924;DHT22;2987;50.884;14.818;2022-09-24T04:35:26;7.70;99.90
5924;DHT22;2987;50.884;14.818;2022-09-24T04:37:55;7.40;99.90
5924;DHT22;2987;50.884;14.818;2022-09-24T04:40:22;7.40;99.90
5924;DHT22;2987;50.884;14.818;2022-09-24T04:42:48;7.40;99.90
5924;DHT22;2987;50.884;14.818;2022-09-24T04:45:15;7.50;99.90
5924;DHT22;2987;50.884;14.818;2022-09-24T04:47:49;7.70;99.90
5924;DHT22;2987;50.884;14.818;2022-09-24T04:50:21;7.30;99.90
5924;DHT22;2987;50.884;14.818;2022-09-24T04:52:53;7.40;99.90
5924;DHT22;2987;50.884;14.818;2022-09-24T04:55:21;7.30;99.90
5924;DHT22;2987;50.884;14.818;2022-09-24T04:57:48;7.30;99.90
5924;DHT22;2987;50.884;14.818;2022-09-24T05:00:18;7.40;99.90
5924;DHT22;2987;50.884;14.818;2022-09-24T05:02:46;7.30;99.90
5924;DHT22;2987;50.884;14.818;2022-09-24T05:05:13;7.00;99.90
5924;DHT22;2987;50.884;14.818;2022-09-24T05:07:41;7.10;99.90
5924;DHT22;2987;50.884;14.818;2022-09-24T05:10:09;7.10;99.90
5924;DHT22;2987;50.884;14.818;2022-09-24T05:12:35;7.10;99.90
5924;DHT22;2987;50.884;14.818;2022-09-24T05:15:02;7.10;99.90
5924;DHT22;2987;50.884;14.818;2022-09-24T05:17:29;7.00;99.90
5924;DHT22;2987;50.884;14.818;2022-09-24T05:19:55;7.30;99.90
5924;DHT22;2987;50.884;14.818;2022-09-24T05:22:24;7.00;99.90
5924;DHT22;2987;50.884;14.818;2022-09-24T05:24:54;7.00;99.90
5924;DHT22;2987;50.884;14.818;2022-09-24T05:27:20;7.30;99.90
5924;DHT22;2987;50.884;14.818;2022-09-24T05:29:48;7.10;99.90
5924;DHT22;2987;50.884;14.818;2022-09-24T05:32:17;6.80;99.90
5924;DHT22;2987;50.884;14.818;2022-09-24T05:34:45;7.00;99.90
5924;DHT22;2987;50.884;14.818;2022-09-24T05:37:13;6.70;99.90
5924;DHT22;2987;50.884;14.818;2022-09-24T05:39:39;6.80;99.90
5924;DHT22;2987;50.884;14.818;2022-09-24T05:42:09;6.90;99.90
5924;DHT22;2987;50.884;14.818;2022-09-24T05:44:35;6.70;99.90
5924;DHT22;2987;50.884;14.818;2022-09-24T05:47:02;6.70;99.90
5924;DHT22;2987;50.884;14.818;2022-09-24T05:49:28;6.70;99.90
5924;DHT22;2987;50.884;14.818;2022-09-24T05:51:54;6.80;99.90
5924;DHT22;2987;50.884;14.818;2022-09-24T05:54:20;7.00;99.90
5924;DHT22;2987;50.884;14.818;2022-09-24T05:56:47;7.20;99.90
5924;DHT22;2987;50.884;14.818;2022-09-24T05:59:13;7.20;99.90
5924;DHT22;2987;50.884;14.818;2022-09-24T06:01:39;7.20;99.90
5924;DHT22;2987;50.884;14.818;2022-09-24T06:04:05;7.30;99.90
5924;DHT22;2987;50.884;14.818;2022-09-24T06:06:32;7.30;99.90
5924;DHT22;2987;50.884;14.818;2022-09-24T06:08:59;7.90;99.90
5924;DHT22;2987;50.884;14.818;2022-09-24T06:11:25;8.00;99.90
5924;DHT22;2987;50.884;14.818;2022-09-24T06:13:53;8.00;99.90
5924;DHT22;2987;50.884;14.818;2022-09-24T06:16:19;8.40;99.90
5924;DHT22;2987;50.884;14.818;2022-09-24T06:18:45;8.40;99.90
5924;DHT22;2987;50.884;14.818;2022-09-24T06:21:13;8.60;99.90
5924;DHT22;2987;50.884;14.818;2022-09-24T06:23:43;8.60;99.90
5924;DHT22;2987;50.884;14.818;2022-09-24T06:26:12;8.90;99.90
5924;DHT22;2987;50.884;14.818;2022-09-24T06:28:40;8.80;99.90
5924;DHT22;2987;50.884;14.818;2022-09-24T06:31:07;9.00;99.90
5924;DHT22;2987;50.884;14.818;2022-09-24T06:33:34;8.80;99.90
5924;DHT22;2987;50.884;14.818;2022-09-24T06:36:03;9.00;99.90
5924;DHT22;2987;50.884;14.818;2022-09-24T06:38:30;9.10;99.90
5924;DHT22;2987;50.884;14.818;2022-09-24T06:40:59;9.20;99.90
5924;DHT22;2987;50.884;14.818;2022-09-24T06:43:26;9.30;99.90
5924;DHT22;2987;50.884;14.818;2022-09-24T06:45:54;9.40;99.90
5924;DHT22;2987;50.884;14.818;2022-09-24T06:48:21;9.30;99.90
5924;DHT22;2987;50.884;14.818;2022-09-24T06:50:48;9.70;99.90
5924;DHT22;2987;50.884;14.818;2022-09-24T06:53:14;9.70;99.90
5924;DHT22;2987;50.884;14.818;2022-09-24T06:55:40;9.90;99.90
5924;DHT22;2987;50.884;14.818;2022-09-24T06:58:11;9.70;99.90
5924;DHT22;2987;50.884;14.818;2022-09-24T07:00:37;10.10;99.90
5924;DHT22;2987;50.884;14.818;2022-09-24T07:03:05;10.20;99.90
5924;DHT22;2987;50.884;14.818;2022-09-24T07:05:33;10.10;99.90
5924;DHT22;2987;50.884;14.818;2022-09-24T07:08:00;10.70;99.90
5924;DHT22;2987;50.884;14.818;2022-09-24T07:10:26;10.60;99.90
5924;DHT22;2987;50.884;14.818;2022-09-24T07:12:53;10.70;99.90
5924;DHT22;2987;50.884;14.818;2022-09-24T07:15:19;11.00;99.90
5924;DHT22;2987;50.884;14.818;2022-09-24T07:17:45;10.80;99.90
5924;DHT22;2987;50.884;14.818;2022-09-24T07:20:11;10.80;99.90
5924;DHT22;2987;50.884;14.818;2022-09-24T07:22:39;11.20;99.90
5924;DHT22;2987;50.884;14.818;2022-09-24T07:25:08;11.00;99.90
5924;DHT22;2987;50.884;14.818;2022-09-24T07:27:34;11.40;99.90
5924;DHT22;2987;50.884;14.818;2022-09-24T07:30:00;11.20;99.90
5924;DHT22;2987;50.884;14.818;2022-09-24T07:32:26;11.40;99.90
5924;DHT22;2987;50.884;14.818;2022-09-24T07:34:53;11.50;99.90
5924;DHT22;2987;50.884;14.818;2022-09-24T07:37:19;11.60;99.90
5924;DHT22;2987;50.884;14.818;2022-09-24T07:39:45;11.80;99.90
5924;DHT22;2987;50.884;14.818;2022-09-24T07:42:12;11.80;99.90
5924;DHT22;2987;50.884;14.818;2022-09-24T07:44:38;11.90;99.90
5924;DHT22;2987;50.884;14.818;2022-09-24T07:47:04;12.00;99.90
5924;DHT22;2987;50.884;14.818;2022-09-24T07:49:31;11.90;99.90
5924;DHT22;2987;50.884;14.818;2022-09-24T07:51:59;12.00;99.90
5924;DHT22;2987;50.884;14.818;2022-09-24T07:54:25;12.00;99.90
5924;DHT22;2987;50.884;14.818;2022-09-24T07:56:51;12.00;99.90
5924;DHT22;2987;50.884;14.818;2022-09-24T07:59:17;12.20;99.90
5924;DHT22;2987;50.884;14.818;2022-09-24T08:01:45;12.10;99.90
5924;DHT22;2987;50.884;14.818;2022-09-24T08:04:11;12.10;99.90
5924;DHT22;2987;50.884;14.818;2022-09-24T08:06:37;12.00;99.90
5924;DHT22;2987;50.884;14.818;2022-09-24T08:09:07;12.40;99.90
5924;DHT22;2987;50.884;14.818;2022-09-24T08:11:33;12.60;99.90
5924;DHT22;2987;50.884;14.818;2022-09-24T08:13:59;13.00;99.90
5924;DHT22;2987;50.884;14.818;2022-09-24T08:16:25;13.50;99.90
5924;DHT22;2987;50.884;14.818;2022-09-24T08:18:52;14.10;99.90
5924;DHT22;2987;50.884;14.818;2022-09-24T08:21:19;14.80;99.90
5924;DHT22;2987;50.884;14.818;2022-09-24T08:23:47;15.60;99.90
5924;DHT22;2987;50.884;14.818;2022-09-24T08:26:14;16.20;99.90
5924;DHT22;2987;50.884;14.818;2022-09-24T08:28:40;16.60;99.90
5924;DHT22;2987;50.884;14.818;2022-09-24T08:31:10;17.10;99.90
5924;DHT22;2987;50.884;14.818;2022-09-24T08:33:38;17.40;99.90
5924;DHT22;2987;50.884;14.818;2022-09-24T08:36:07;17.70;99.90
5924;DHT22;2987;50.884;14.818;2022-09-24T08:38:34;17.80;99.90
5924;DHT22;2987;50.884;14.818;2022-09-24T08:41:24;18.10;99.90
5924;DHT22;2987;50.884;14.818;2022-09-24T08:44:06;18.20;99.90
5924;DHT22;2987;50.884;14.818;2022-09-24T08:46:50;18.50;99.90
5924;DHT22;2987;50.884;14.818;2022-09-24T08:49:43;18.60;99.90
5924;DHT22;2987;50.884;14.818;2022-09-24T08:57:49;19.30;99.90
5924;DHT22;2987;50.884;14.818;2022-09-24T09:03:00;19.30;99.90
5924;DHT22;2987;50.884;14.818;2022-09-24T09:05:52;19.10;99.90
5924;DHT22;2987;50.884;14.818;2022-09-24T09:11:02;19.00;99.90
5924;DHT22;2987;50.884;14.818;2022-09-24T09:13:42;19.00;99.90
5924;DHT22;2987;50.884;14.818;2022-09-24T09:16:27;18.90;99.90
5924;DHT22;2987;50.884;14.818;2022-09-24T09:19:02;18.70;99.90
5924;DHT22;2987;50.884;14.818;2022-09-24T09:21:41;18.80;99.90
5924;DHT22;2987;50.884;14.818;2022-09-24T09:24:23;18.80;99.90
5924;DHT22;2987;50.884;14.818;2022-09-24T09:26:54;18.90;99.90
5924;DHT22;2987;50.884;14.818;2022-09-24T09:29:22;18.90;99.90
5924;DHT22;2987;50.884;14.818;2022-09-24T09:32:04;18.90;99.90
5924;DHT22;2987;50.884;14.818;2022-09-24T09:34:48;19.00;99.90
5924;DHT22;2987;50.884;14.818;2022-09-24T09:37:32;18.90;99.90
5924;DHT22;2987;50.884;14.818;2022-09-24T09:43:10;19.40;99.90
5924;DHT22;2987;50.884;14.818;2022-09-24T09:45:54;19.80;99.90
5924;DHT22;2987;50.884;14.818;2022-09-24T09:50:48;20.00;99.90
5924;DHT22;2987;50.884;14.818;2022-09-24T09:53:25;20.00;99.90
5924;DHT22;2987;50.884;14.818;2022-09-24T09:55:56;20.00;99.90
5924;DHT22;2987;50.884;14.818;2022-09-24T09:58:26;20.00;99.90
5924;DHT22;2987;50.884;14.818;2022-09-24T10:01:03;20.10;99.90
5924;DHT22;2987;50.884;14.818;2022-09-24T10:03:34;20.20;99.90
5924;DHT22;2987;50.884;14.818;2022-09-24T10:06:06;20.20;99.90
5924;DHT22;2987;50.884;14.818;2022-09-24T10:08:32;20.10;99.90
5924;DHT22;2987;50.884;14.818;2022-09-24T10:10:59;20.10;99.90
5924;DHT22;2987;50.884;14.818;2022-09-24T10:13:26;20.10;99.90
5924;DHT22;2987;50.884;14.818;2022-09-24T10:15:56;20.20;99.90
5924;DHT22;2987;50.884;14.818;2022-09-24T10:18:30;20.20;99.90
5924;DHT22;2987;50.884;14.818;2022-09-24T10:20:58;20.40;99.90
5924;DHT22;2987;50.884;14.818;2022-09-24T10:23:33;20.50;99.90
5924;DHT22;2987;50.884;14.818;2022-09-24T10:26:01;20.70;99.90
5924;DHT22;2987;50.884;14.818;2022-09-24T10:28:29;20.80;99.90
5924;DHT22;2987;50.884;14.818;2022-09-24T10:31:20;20.90;99.90
5924;DHT22;2987;50.884;14.818;2022-09-24T10:33:51;20.70;99.90
5924;DHT22;2987;50.884;14.818;2022-09-24T10:36:21;20.60;99.90
5924;DHT22;2987;50.884;14.818;2022-09-24T10:38:59;20.50;99.90
5924;DHT22;2987;50.884;14.818;2022-09-24T10:41:29;20.30;99.90
5924;DHT22;2987;50.884;14.818;2022-09-24T10:43:58;20.20;99.90
5924;DHT22;2987;50.884;14.818;2022-09-24T10:46:39;20.20;99.90
5924;DHT22;2987;50.884;14.818;2022-09-24T10:55:06;20.50;99.90
5924;DHT22;2987;50.884;14.818;2022-09-24T11:00:25;19.90;99.90
5924;DHT22;2987;50.884;14.818;2022-09-24T11:03:23;19.60;99.90
5924;DHT22;2987;50.884;14.818;2022-09-24T11:11:39;20.20;99.90
5924;DHT22;2987;50.884;14.818;2022-09-24T11:22:07;20.50;99.90
5924;DHT22;2987;50.884;14.818;2022-09-24T11:30:20;20.50;99.90
5924;DHT22;2987;50.884;14.818;2022-09-24T11:35:52;20.50;99.90
5924;DHT22;2987;50.884;14.818;2022-09-24T11:44:18;20.20;99.90
5924;DHT22;2987;50.884;14.818;2022-09-24T11:54:59;19.70;99.90
5924;DHT22;2987;50.884;14.818;2022-09-24T11:57:39;19.70;99.90
5924;DHT22;2987;50.884;14.818;2022-09-24T12:00:13;19.90;99.90
5924;DHT22;2987;50.884;14.818;2022-09-24T12:05:36;19.90;99.90
5924;DHT22;2987;50.884;14.818;2022-09-24T12:13:40;19.80;99.90
5924;DHT22;2987;50.884;14.818;2022-09-24T12:16:12;19.80;99.90
5924;DHT22;2987;50.884;14.818;2022-09-24T12:18:51;19.90;99.90
5924;DHT22;2987;50.884;14.818;2022-09-24T12:21:25;19.80;99.90
5924;DHT22;2987;50.884;14.818;2022-09-24T12:23:57;19.70;99.90
5924;DHT22;2987;50.884;14.818;2022-09-24T12:26:24;19.80;99.90
5924;DHT22;2987;50.884;14.818;2022-09-24T12:29:04;20.00;99.90
5924;DHT22;2987;50.884;14.818;2022-09-24T12:35:30;20.30;99.90
5924;DHT22;2987;50.884;14.818;2022-09-24T12:38:06;20.30;99.90
5924;DHT22;2987;50.884;14.818;2022-09-24T12:43:20;20.50;99.90
5924;DHT22;2987;50.884;14.818;2022-09-24T12:45:57;20.50;99.90
5924;DHT22;2987;50.884;14.818;2022-09-24T12:48:25;20.50;99.90
5924;DHT22;2987;50.884;14.818;2022-09-24T12:50:57;20.50;99.90
5924;DHT22;2987;50.884;14.818;2022-09-24T12:53:33;20.40;99.90
5924;DHT22;2987;50.884;14.818;2022-09-24T12:56:02;20.40;99.90
5924;DHT22;2987;50.884;14.818;2022-09-24T13:01:26;20.20;99.90
5924;DHT22;2987;50.884;14.818;2022-09-24T13:04:05;20.20;99.90
5924;DHT22;2987;50.884;14.818;2022-09-24T13:06:50;20.00;99.90
5924;DHT22;2987;50.884;14.818;2022-09-24T13:09:35;20.00;99.90
5924;DHT22;2987;50.884;14.818;2022-09-24T13:12:21;20.00;99.90
5924;DHT22;2987;50.884;14.818;2022-09-24T13:14:59;19.90;99.90
5924;DHT22;2987;50.884;14.818;2022-09-24T13:17:29;19.90;99.90
5924;DHT22;2987;50.884;14.818;2022-09-24T13:20:02;19.90;99.90
5924;DHT22;2987;50.884;14.818;2022-09-24T13:22:32;19.90;99.90
5924;DHT22;2987;50.884;14.818;2022-09-24T13:25:19;19.80;99.90
5924;DHT22;2987;50.884;14.818;2022-09-24T13:27:58;19.70;99.90
5924;DHT22;2987;50.884;14.818;2022-09-24T13:30:36;19.50;99.90
5924;DHT22;2987;50.884;14.818;2022-09-24T13:33:29;19.50;99.90
5924;DHT22;2987;50.884;14.818;2022-09-24T13:36:14;19.60;99.90
5924;DHT22;2987;50.884;14.818;2022-09-24T13:44:40;19.70;99.90
5924;DHT22;2987;50.884;14.818;2022-09-24T13:47:29;19.70;99.90
5924;DHT22;2987;50.884;14.818;2022-09-24T13:52:39;19.80;99.90
5924;DHT22;2987;50.884;14.818;2022-09-24T13:55:16;19.90;99.90
5924;DHT22;2987;50.884;14.818;2022-09-24T13:57:45;20.00;99.90
5924;DHT22;2987;50.884;14.818;2022-09-24T14:00:17;19.90;99.90
5924;DHT22;2987;50.884;14.818;2022-09-24T14:03:04;19.70;99.90
5924;DHT22;2987;50.884;14.818;2022-09-24T14:05:39;19.70;99.90
5924;DHT22;2987;50.884;14.818;2022-09-24T14:08:10;19.70;99.90
5924;DHT22;2987;50.884;14.818;2022-09-24T14:10:38;19.80;99.90
5924;DHT22;2987;50.884;14.818;2022-09-24T14:13:16;19.90;99.90
5924;DHT22;2987;50.884;14.818;2022-09-24T14:18:20;19.50;99.90
5924;DHT22;2987;50.884;14.818;2022-09-24T14:21:08;19.50;99.90
5924;DHT22;2987;50.884;14.818;2022-09-24T14:23:41;19.50;99.90
5924;DHT22;2987;50.884;14.818;2022-09-24T14:26:21;19.60;99.90
5924;DHT22;2987;50.884;14.818;2022-09-24T14:28:51;19.50;99.90
5924;DHT22;2987;50.884;14.818;2022-09-24T14:31:18;19.40;99.90
5924;DHT22;2987;50.884;14.818;2022-09-24T14:33:44;19.20;99.90
5924;DHT22;2987;50.884;14.818;2022-09-24T14:36:12;19.20;99.90
5924;DHT22;2987;50.884;14.818;2022-09-24T14:38:51;19.20;99.90
5924;DHT22;2987;50.884;14.818;2022-09-24T14:41:23;19.20;99.90
5924;DHT22;2987;50.884;14.818;2022-09-24T14:43:58;19.00;99.90
5924;DHT22;2987;50.884;14.818;2022-09-24T14:46:30;19.00;99.90
5924;DHT22;2987;50.884;14.818;2022-09-24T14:49:13;19.00;99.90
5924;DHT22;2987;50.884;14.818;2022-09-24T14:51:53;19.00;99.90
5924;DHT22;2987;50.884;14.818;2022-09-24T14:54:33;18.90;99.90
5924;DHT22;2987;50.884;14.818;2022-09-24T14:57:22;18.80;99.90
5924;DHT22;2987;50.884;14.818;2022-09-24T14:59:49;18.70;99.90
5924;DHT22;2987;50.884;14.818;2022-09-24T15:02:20;18.60;99.90
5924;DHT22;2987;50.884;14.818;2022-09-24T15:04:51;18.60;99.90
5924;DHT22;2987;50.884;14.818;2022-09-24T15:07:21;18.50;99.90
5924;DHT22;2987;50.884;14.818;2022-09-24T15:09:50;18.40;99.90
5924;DHT22;2987;50.884;14.818;2022-09-24T15:12:20;18.40;99.90
5924;DHT22;2987;50.884;14.818;2022-09-24T15:14:57;18.30;99.90
5924;DHT22;2987;50.884;14.818;2022-09-24T15:17:30;18.20;99.90
5924;DHT22;2987;50.884;14.818;2022-09-24T15:19:57;18.10;99.90
5924;DHT22;2987;50.884;14.818;2022-09-24T15:22:25;17.90;99.90
5924;DHT22;2987;50.884;14.818;2022-09-24T15:24:54;17.80;99.90
5924;DHT22;2987;50.884;14.818;2022-09-24T15:27:23;17.70;99.90
5924;DHT22;2987;50.884;14.818;2022-09-24T15:29:52;17.60;99.90
5924;DHT22;2987;50.884;14.818;2022-09-24T15:32:21;17.50;99.90
5924;DHT22;2987;50.884;14.818;2022-09-24T15:34:48;17.40;99.90
5924;DHT22;2987;50.884;14.818;2022-09-24T15:37:18;17.20;99.90
5924;DHT22;2987;50.884;14.818;2022-09-24T15:39:46;17.10;99.90
5924;DHT22;2987;50.884;14.818;2022-09-24T15:42:16;17.10;99.90
5924;DHT22;2987;50.884;14.818;2022-09-24T15:44:43;17.00;99.90
5924;DHT22;2987;50.884;14.818;2022-09-24T15:47:11;16.80;99.90
5924;DHT22;2987;50.884;14.818;2022-09-24T15:49:37;16.70;99.90
5924;DHT22;2987;50.884;14.818;2022-09-24T15:52:07;16.60;99.90
5924;DHT22;2987;50.884;14.818;2022-09-24T15:54:34;16.50;99.90
5924;DHT22;2987;50.884;14.818;2022-09-24T15:57:00;16.40;99.90
5924;DHT22;2987;50.884;14.818;2022-09-24T15:59:27;16.20;99.90
5924;DHT22;2987;50.884;14.818;2022-09-24T16:01:58;16.20;99.90
5924;DHT22;2987;50.884;14.818;2022-09-24T16:04:26;16.00;99.90
5924;DHT22;2987;50.884;14.818;2022-09-24T16:06:52;16.00;99.90
5924;DHT22;2987;50.884;14.818;2022-09-24T16:09:18;15.90;99.90
5924;DHT22;2987;50.884;14.818;2022-09-24T16:11:44;15.80;99.90
5924;DHT22;2987;50.884;14.818;2022-09-24T16:14:10;15.60;99.90
5924;DHT22;2987;50.884;14.818;2022-09-24T16:16:38;15.50;99.90
5924;DHT22;2987;50.884;14.818;2022-09-24T16:19:04;15.40;99.90
5924;DHT22;2987;50.884;14.818;2022-09-24T16:21:33;15.30;99.90
5924;DHT22;2987;50.884;14.818;2022-09-24T16:23:59;15.10;99.90
5924;DHT22;2987;50.884;14.818;2022-09-24T16:26:26;15.00;99.90
5924;DHT22;2987;50.884;14.818;2022-09-24T16:28:52;14.90;99.90
5924;DHT22;2987;50.884;14.818;2022-09-24T16:31:18;14.80;99.90
5924;DHT22;2987;50.884;14.818;2022-09-24T16:33:45;14.60;99.90
5924;DHT22;2987;50.884;14.818;2022-09-24T16:36:11;14.50;99.90
5924;DHT22;2987;50.884;14.818;2022-09-24T16:38:38;14.40;99.90
5924;DHT22;2987;50.884;14.818;2022-09-24T16:41:05;14.30;99.90
5924;DHT22;2987;50.884;14.818;2022-09-24T16:43:32;14.20;99.90
5924;DHT22;2987;50.884;14.818;2022-09-24T16:46:00;14.00;99.90
5924;DHT22;2987;50.884;14.818;2022-09-24T16:48:26;13.90;99.90
5924;DHT22;2987;50.884;14.818;2022-09-24T16:50:52;13.80;99.90
5924;DHT22;2987;50.884;14.818;2022-09-24T16:53:18;13.60;99.90
5924;DHT22;2987;50.884;14.818;2022-09-24T16:55:45;13.50;99.90
5924;DHT22;2987;50.884;14.818;2022-09-24T16:58:11;13.40;99.90
5924;DHT22;2987;50.884;14.818;2022-09-24T17:00:40;13.30;99.90
5924;DHT22;2987;50.884;14.818;2022-09-24T17:03:09;13.20;99.90
5924;DHT22;2987;50.884;14.818;2022-09-24T17:05:36;13.00;99.90
5924;DHT22;2987;50.884;14.818;2022-09-24T17:08:05;12.90;99.90
5924;DHT22;2987;50.884;14.818;2022-09-24T17:10:31;12.80;99.90
5924;DHT22;2987;50.884;14.818;2022-09-24T17:12:57;12.70;99.90
5924;DHT22;2987;50.884;14.818;2022-09-24T17:15:24;12.60;99.90
5924;DHT22;2987;50.884;14.818;2022-09-24T17:17:50;12.50;99.90
5924;DHT22;2987;50.884;14.818;2022-09-24T17:20:18;12.40;99.90
5924;DHT22;2987;50.884;14.818;2022-09-24T17:22:45;12.30;99.90
5924;DHT22;2987;50.884;14.818;2022-09-24T17:25:13;12.20;99.90
5924;DHT22;2987;50.884;14.818;2022-09-24T17:27:39;12.10;99.90
5924;DHT22;2987;50.884;14.818;2022-09-24T17:30:06;11.90;99.90
5924;DHT22;2987;50.884;14.818;2022-09-24T17:32:34;11.80;99.90
5924;DHT22;2987;50.884;14.818;2022-09-24T17:35:00;11.70;99.90
5924;DHT22;2987;50.884;14.818;2022-09-24T17:37:26;11.70;99.90
5924;DHT22;2987;50.884;14.818;2022-09-24T17:39:52;11.60;99.90
5924;DHT22;2987;50.884;14.818;2022-09-24T17:42:18;11.50;99.90
5924;DHT22;2987;50.884;14.818;2022-09-24T17:44:44;11.40;99.90
5924;DHT22;2987;50.884;14.818;2022-09-24T17:47:11;11.30;99.90
5924;DHT22;2987;50.884;14.818;2022-09-24T17:49:37;11.30;99.90
5924;DHT22;2987;50.884;14.818;2022-09-24T17:52:03;11.40;99.90
5924;DHT22;2987;50.884;14.818;2022-09-24T17:54:29;11.10;99.90
5924;DHT22;2987;50.884;14.818;2022-09-24T17:56:56;11.00;99.90
5924;DHT22;2987;50.884;14.818;2022-09-24T17:59:22;10.90;99.90